Time;durP1;ratioP1;P1;durP2;ratioP2;P2;SDS_P1;SDS_P2;PMS_P1;PMS_P2;Temp;Humidity;BMP_temperature;BMP_pressure;BME280_temperature;BME280_humidity;BME280_pressure;Samples;Min_cycle;Max_cycle;Signal;HPM_P1;HPM_P2
2023/01/25 00:01:33;;;;;;;26.05;15.32;;;1.60;99.90;;;;;;4935058;28;20048;-82
2023/01/25 00:03:59;;;;;;;27.63;16.45;;;0.70;99.90;;;;;;4967636;28;20051;-82
2023/01/25 00:06:24;;;;;;;29.00;16.85;;;2.10;99.90;;;;;;4963319;28;20500;-82
2023/01/25 00:08:51;;;;;;;28.20;15.77;;;0.70;99.90;;;;;;4960217;28;21284;-82
2023/01/25 00:11:16;;;;;;;29.25;16.55;;;2.40;99.90;;;;;;4991849;28;20046;-82
2023/01/25 00:13:43;;;;;;;32.30;17.50;;;0.90;99.90;;;;;;5008958;28;20493;-82
2023/01/25 00:16:08;;;;;;;34.20;16.50;;;1.20;99.90;;;;;;4964878;28;20042;-82
2023/01/25 00:18:34;;;;;;;28.95;17.00;;;1.40;99.90;;;;;;4967900;28;20121;-82
2023/01/25 00:21:11;;;;;;;31.15;16.45;;;0.70;99.90;;;;;;4960102;28;20737;-82
2023/01/25 00:23:37;;;;;;;29.15;16.08;;;0.70;99.90;;;;;;4983236;28;20104;-82
2023/01/25 00:26:03;;;;;;;28.80;16.23;;;0.60;99.90;;;;;;4962576;28;20053;-81
2023/01/25 00:28:29;;;;;;;28.38;15.75;;;0.60;99.90;;;;;;4973869;28;20137;-81
2023/01/25 00:30:59;;;;;;;28.35;16.33;;;1.20;99.90;;;;;;4994172;28;20298;-81
2023/01/25 00:33:37;;;;;;;30.77;16.30;;;2.00;99.90;;;;;;4982269;28;20057;-82
2023/01/25 00:36:38;;;;;;;31.30;17.27;;;0.60;99.90;;;;;;4981362;28;20050;-81
2023/01/25 00:39:05;;;;;;;30.25;15.93;;;0.50;99.90;;;;;;4978947;28;20049;-82
2023/01/25 00:41:31;;;;;;;30.90;16.02;;;0.50;99.90;;;;;;4981536;28;20050;-82
2023/01/25 00:43:57;;;;;;;33.30;17.45;;;0.50;99.90;;;;;;5014513;28;20614;-83
2023/01/25 00:46:23;;;;;;;30.38;16.63;;;1.30;99.90;;;;;;4981400;28;20691;-82
2023/01/25 00:48:53;;;;;;;30.75;15.98;;;0.50;99.90;;;;;;4980440;28;20479;-82
2023/01/25 00:51:19;;;;;;;32.63;15.63;;;0.50;99.90;;;;;;4973899;28;20108;-83
2023/01/25 00:53:45;;;;;;;32.95;17.73;;;0.50;99.90;;;;;;4978640;28;20057;-82
2023/01/25 00:56:11;;;;;;;35.42;18.08;;;0.80;99.90;;;;;;4987320;28;20589;-82
2023/01/25 00:58:36;;;;;;;30.20;16.77;;;-0.20;99.90;;;;;;4993106;28;20038;-82
2023/01/25 01:01:02;;;;;;;29.92;15.93;;;0.50;99.90;;;;;;4989926;28;20098;-81
2023/01/25 01:03:28;;;;;;;29.27;16.55;;;0.50;99.90;;;;;;4965679;28;20046;-83
2023/01/25 01:06:05;;;;;;;30.45;16.50;;;0.80;99.90;;;;;;4987304;28;20042;-82
2023/01/25 01:08:37;;;;;;;29.75;15.57;;;0.50;99.90;;;;;;4982306;28;20042;-82
2023/01/25 01:11:06;;;;;;;32.53;16.40;;;0.50;99.90;;;;;;4997643;28;20627;-81
2023/01/25 01:13:32;;;;;;;31.92;16.33;;;0.50;99.90;;;;;;4963231;28;20064;-82
2023/01/25 01:16:01;;;;;;;35.08;17.98;;;0.80;99.90;;;;;;4997257;28;20054;-81
2023/01/25 01:18:28;;;;;;;27.73;16.52;;;0.50;99.90;;;;;;4981258;28;20057;-81
2023/01/25 01:20:54;;;;;;;34.55;18.92;;;0.50;99.90;;;;;;4961765;28;20056;-82
2023/01/25 01:23:20;;;;;;;34.35;18.58;;;0.50;99.90;;;;;;4965275;28;20054;-82
2023/01/25 01:25:46;;;;;;;32.88;17.58;;;1.50;99.90;;;;;;4979137;28;20042;-82
2023/01/25 01:28:12;;;;;;;33.67;16.85;;;0.50;99.90;;;;;;5013786;28;20056;-83
2023/01/25 01:30:38;;;;;;;34.92;18.05;;;1.60;99.90;;;;;;4964602;28;20060;-82
2023/01/25 01:33:05;;;;;;;37.22;19.75;;;0.50;99.90;;;;;;5009314;28;20055;-81
2023/01/25 01:35:31;;;;;;;38.22;19.63;;;0.50;99.90;;;;;;4984130;28;20054;-82
2023/01/25 01:37:57;;;;;;;38.00;18.67;;;0.50;99.90;;;;;;5008691;28;20046;-82
2023/01/25 01:43:47;;;;;;;37.22;19.48;;;-0.60;99.90;;;;;;4975465;28;20072;-83
2023/01/25 01:46:32;;;;;;;39.42;19.30;;;0.50;99.90;;;;;;4947155;28;20649;-82
2023/01/25 01:49:07;;;;;;;37.70;19.38;;;0.50;99.90;;;;;;4986877;28;20061;-83
2023/01/25 01:51:42;;;;;;;38.05;19.38;;;0.50;99.90;;;;;;4978251;28;20046;-83
2023/01/25 01:54:24;;;;;;;37.53;18.83;;;0.50;99.90;;;;;;4995211;28;20831;-82
2023/01/25 01:57:05;;;;;;;37.67;18.67;;;0.50;99.90;;;;;;4995159;28;20050;-82
2023/01/25 01:59:35;;;;;;;39.80;19.42;;;0.50;99.90;;;;;;4974067;28;20047;-82
2023/01/25 02:02:02;;;;;;;39.50;19.55;;;0.40;99.90;;;;;;4984218;28;20050;-82
2023/01/25 02:04:28;;;;;;;40.55;21.48;;;0.40;99.90;;;;;;4995746;28;20082;-81
2023/01/25 02:06:59;;;;;;;42.85;20.23;;;0.40;99.90;;;;;;4995716;28;20058;-82
2023/01/25 02:09:28;;;;;;;36.67;18.70;;;0.40;99.90;;;;;;4977782;28;20736;-82
2023/01/25 02:11:57;;;;;;;39.70;19.23;;;1.80;99.90;;;;;;4962034;28;20054;-81
2023/01/25 02:14:24;;;;;;;40.13;20.33;;;0.40;99.90;;;;;;4980564;28;20086;-82
2023/01/25 02:16:50;;;;;;;42.78;20.08;;;1.50;99.90;;;;;;4949003;28;20050;-83
2023/01/25 02:19:39;;;;;;;40.28;21.00;;;1.70;99.90;;;;;;4970838;28;20051;-81
2023/01/25 02:22:09;;;;;;;39.03;18.50;;;0.70;99.90;;;;;;4979089;28;20070;-83
2023/01/25 02:24:41;;;;;;;37.40;18.70;;;2.00;99.90;;;;;;4975969;28;20109;-83
2023/01/25 02:27:07;;;;;;;37.90;19.23;;;0.40;99.90;;;;;;4959498;28;20046;-83
2023/01/25 02:29:33;;;;;;;39.05;18.33;;;1.60;99.90;;;;;;4968837;28;20042;-82
2023/01/25 02:32:03;;;;;;;41.08;19.63;;;0.40;99.90;;;;;;4979112;28;20103;-83
2023/01/25 02:34:29;;;;;;;41.03;21.00;;;0.40;99.90;;;;;;4991924;28;20127;-83
2023/01/25 02:36:54;;;;;;;40.75;19.92;;;0.60;99.90;;;;;;4954893;28;20061;-82
2023/01/25 02:39:22;;;;;;;39.85;19.88;;;1.90;99.90;;;;;;4962885;28;20129;-81
2023/01/25 02:41:48;;;;;;;42.55;20.05;;;0.40;99.90;;;;;;4977010;28;20057;-82
2023/01/25 02:44:27;;;;;;;41.45;19.92;;;0.90;99.90;;;;;;4985061;28;20039;-83
2023/01/25 02:46:53;;;;;;;40.33;20.77;;;0.40;99.90;;;;;;4997901;28;20504;-83
2023/01/25 02:49:19;;;;;;;42.58;21.17;;;1.00;99.90;;;;;;4983277;28;20777;-83
2023/01/25 02:51:54;;;;;;;41.50;19.95;;;1.90;99.90;;;;;;4979959;28;20054;-83
2023/01/25 02:54:21;;;;;;;41.90;19.50;;;0.40;99.90;;;;;;4981353;28;20050;-83
2023/01/25 02:56:47;;;;;;;38.28;19.38;;;1.80;99.90;;;;;;4980419;28;20050;-83
2023/01/25 02:59:12;;;;;;;40.83;20.23;;;1.50;99.90;;;;;;4979241;28;20042;-83
2023/01/25 03:01:40;;;;;;;41.10;20.30;;;1.30;99.90;;;;;;5012067;28;20078;-80
2023/01/25 03:04:06;;;;;;;46.38;20.55;;;0.50;99.90;;;;;;4984991;28;20156;-81
2023/01/25 03:06:34;;;;;;;42.65;20.42;;;0.90;99.90;;;;;;4967254;28;20046;-83
2023/01/25 03:09:00;;;;;;;42.97;20.40;;;0.50;99.90;;;;;;4957440;28;20050;-82
2023/01/25 03:11:26;;;;;;;41.92;20.58;;;0.50;99.90;;;;;;4961337;28;20568;-83
2023/01/25 03:13:52;;;;;;;40.05;21.65;;;0.50;99.90;;;;;;4953002;28;20042;-82
2023/01/25 03:16:18;;;;;;;42.50;21.15;;;0.50;99.90;;;;;;4951939;28;20393;-83
2023/01/25 03:18:44;;;;;;;41.85;21.38;;;2.00;99.90;;;;;;4973880;28;20165;-83
2023/01/25 03:21:16;;;;;;;39.50;19.73;;;1.10;99.90;;;;;;4957538;28;20686;-83
2023/01/25 03:23:44;;;;;;;39.05;20.38;;;0.50;99.90;;;;;;4978643;28;20052;-83
2023/01/25 03:26:20;;;;;;;39.65;19.08;;;0.50;99.90;;;;;;4978132;28;20114;-83
2023/01/25 03:28:46;;;;;;;41.15;19.50;;;0.50;99.90;;;;;;4944265;28;20104;-81
2023/01/25 03:31:14;;;;;;;40.65;19.42;;;0.80;99.90;;;;;;4967708;28;20038;-81
2023/01/25 03:33:40;;;;;;;40.05;18.02;;;1.10;99.90;;;;;;4995039;28;20050;-81
2023/01/25 03:36:07;;;;;;;41.88;19.10;;;0.50;99.90;;;;;;4980065;28;20084;-81
2023/01/25 03:38:33;;;;;;;38.17;19.55;;;0.50;99.90;;;;;;4996649;28;20053;-82
2023/01/25 03:40:59;;;;;;;36.67;19.13;;;0.50;99.90;;;;;;4996842;28;20069;-82
2023/01/25 03:43:26;;;;;;;41.85;20.75;;;0.50;99.90;;;;;;4976332;28;20041;-82
2023/01/25 03:45:57;;;;;;;38.97;20.17;;;0.50;99.90;;;;;;4961677;28;20042;-82
2023/01/25 03:48:24;;;;;;;40.83;19.40;;;0.50;99.90;;;;;;4980472;28;20114;-82
2023/01/25 03:50:58;;;;;;;40.30;20.73;;;0.50;99.90;;;;;;4977764;28;20107;-81
2023/01/25 03:53:30;;;;;;;39.60;19.80;;;1.40;99.90;;;;;;4986264;28;20053;-82
2023/01/25 03:55:57;;;;;;;38.58;20.55;;;0.50;99.90;;;;;;4981272;28;20129;-80
2023/01/25 03:58:24;;;;;;;43.72;20.35;;;0.50;99.90;;;;;;5014264;28;20042;-81
2023/01/25 04:00:50;;;;;;;43.22;21.60;;;0.50;99.90;;;;;;4996228;28;20088;-80
2023/01/25 04:03:18;;;;;;;37.70;18.38;;;1.00;99.90;;;;;;4959686;28;21080;-81
2023/01/25 04:05:44;;;;;;;44.20;20.85;;;0.50;99.90;;;;;;4998305;28;20058;-80
2023/01/25 04:08:10;;;;;;;39.53;19.45;;;0.50;99.90;;;;;;4980319;28;20050;-81
2023/01/25 04:10:35;;;;;;;39.05;20.65;;;0.50;99.90;;;;;;4990255;28;20053;-82
2023/01/25 04:13:01;;;;;;;42.90;21.20;;;1.10;99.90;;;;;;4970087;28;20046;-81
2023/01/25 04:15:27;;;;;;;44.67;22.17;;;0.50;99.90;;;;;;4962406;28;20048;-82
2023/01/25 04:17:53;;;;;;;40.63;20.50;;;0.50;99.90;;;;;;4998152;28;20862;-82
2023/01/25 04:20:18;;;;;;;43.95;22.23;;;1.90;99.90;;;;;;5001377;28;20073;-82
2023/01/25 04:22:44;;;;;;;42.08;21.58;;;0.60;99.90;;;;;;4968603;28;20502;-81
2023/01/25 04:25:10;;;;;;;41.95;21.38;;;1.60;99.90;;;;;;4969137;28;20041;-81
2023/01/25 04:27:35;;;;;;;38.30;19.70;;;0.50;99.90;;;;;;4962568;28;20046;-81
2023/01/25 04:30:04;;;;;;;40.05;21.05;;;0.50;99.90;;;;;;4960133;28;20046;-82
2023/01/25 04:32:29;;;;;;;40.90;21.00;;;0.50;99.90;;;;;;4971781;28;20890;-82
2023/01/25 04:34:56;;;;;;;38.55;20.10;;;1.10;99.90;;;;;;4998678;28;20061;-82
2023/01/25 04:37:22;;;;;;;42.47;21.70;;;0.50;99.90;;;;;;4954464;28;20054;-82
2023/01/25 04:39:48;;;;;;;39.50;21.70;;;1.00;99.90;;;;;;4977084;28;20041;-82
2023/01/25 04:42:13;;;;;;;40.50;21.65;;;0.50;99.90;;;;;;4972141;28;20388;-82
2023/01/25 04:44:39;;;;;;;41.47;21.40;;;0.60;99.90;;;;;;4982204;28;20046;-82
2023/01/25 04:47:05;;;;;;;38.60;20.77;;;0.70;99.90;;;;;;4970584;28;20049;-83
2023/01/25 04:49:30;;;;;;;40.72;21.00;;;0.60;99.90;;;;;;4997194;28;20049;-81
2023/01/25 04:51:56;;;;;;;38.33;20.75;;;0.60;99.90;;;;;;4991480;28;20647;-81
2023/01/25 04:54:22;;;;;;;42.65;21.02;;;0.60;99.90;;;;;;4987983;28;20146;-81
2023/01/25 04:56:47;;;;;;;38.25;19.42;;;0.50;99.90;;;;;;4960357;28;20136;-81
2023/01/25 04:59:13;;;;;;;37.08;17.73;;;1.90;99.90;;;;;;4983724;28;20074;-81
2023/01/25 05:01:39;;;;;;;34.17;17.77;;;0.60;99.90;;;;;;4980550;28;20092;-82
2023/01/25 05:04:05;;;;;;;33.40;17.77;;;2.00;99.90;;;;;;4980781;28;20461;-81
2023/01/25 05:06:30;;;;;;;36.17;18.15;;;0.60;99.90;;;;;;4981932;28;20053;-81
2023/01/25 05:08:56;;;;;;;39.65;20.35;;;1.70;99.90;;;;;;4979102;28;20337;-82
2023/01/25 05:11:22;;;;;;;34.13;17.85;;;1.10;99.90;;;;;;5014202;28;20559;-82
2023/01/25 05:13:47;;;;;;;34.47;17.55;;;1.00;99.90;;;;;;5010833;28;21190;-82
2023/01/25 05:16:13;;;;;;;37.92;19.20;;;0.50;99.90;;;;;;4989179;28;20053;-81
2023/01/25 05:18:39;;;;;;;35.13;18.70;;;0.40;99.90;;;;;;5015086;28;20534;-82
2023/01/25 05:21:56;;;;;;;37.25;19.05;;;0.40;99.90;;;;;;5017407;28;20116;-81
2023/01/25 05:23:50;;;;;;;35.28;16.75;;;0.70;99.90;;;;;;5005978;28;20048;-82
2023/01/25 05:29:03;;;;;;;40.53;19.33;;;0.30;99.90;;;;;;5008202;28;21261;-82
2023/01/25 05:31:29;;;;;;;35.67;17.25;;;0.30;99.90;;;;;;4987172;28;20073;-83
2023/01/25 05:33:54;;;;;;;36.22;17.67;;;0.50;99.90;;;;;;4976182;28;20060;-82
2023/01/25 05:36:20;;;;;;;35.13;18.05;;;0.30;99.90;;;;;;4979893;28;20049;-82
2023/01/25 05:38:46;;;;;;;37.38;17.20;;;0.30;99.90;;;;;;5000647;28;20085;-82
2023/01/25 05:41:11;;;;;;;38.75;18.08;;;1.90;99.90;;;;;;5000573;28;20046;-82
2023/01/25 05:43:37;;;;;;;38.55;20.08;;;2.00;99.90;;;;;;5000747;28;20231;-82
2023/01/25 05:46:04;;;;;;;37.50;18.60;;;1.80;99.90;;;;;;4961695;28;20042;-85
2023/01/25 05:48:30;;;;;;;40.90;20.17;;;-0.40;99.90;;;;;;4999931;28;20080;-82
2023/01/25 05:50:59;;;;;;;41.55;19.52;;;1.90;99.90;;;;;;4996349;28;20137;-82
2023/01/25 05:53:28;;;;;;;41.42;18.67;;;1.70;99.90;;;;;;4959422;28;20081;-82
2023/01/25 05:55:54;;;;;;;41.97;19.50;;;0.50;99.90;;;;;;4978184;28;20054;-82
2023/01/25 05:58:19;;;;;;;36.35;18.52;;;1.00;99.90;;;;;;4978936;28;20050;-81
2023/01/25 06:00:45;;;;;;;34.60;18.17;;;1.40;99.90;;;;;;4982593;28;20057;-82
2023/01/25 06:03:11;;;;;;;33.92;17.05;;;1.60;99.90;;;;;;4997715;28;20491;-82
2023/01/25 06:05:37;;;;;;;32.97;16.80;;;0.80;99.90;;;;;;5014769;28;20053;-82
2023/01/25 06:08:02;;;;;;;34.08;17.30;;;0.70;99.90;;;;;;4984631;28;20616;-82
2023/01/25 06:10:28;;;;;;;38.35;18.73;;;0.20;99.90;;;;;;4980754;28;20104;-82
2023/01/25 06:13:00;;;;;;;34.88;17.02;;;0.20;99.90;;;;;;4998103;28;20041;-83
2023/01/25 06:15:26;;;;;;;41.53;19.48;;;-0.10;99.90;;;;;;4968368;28;20116;-83
2023/01/25 06:17:55;;;;;;;34.53;17.05;;;0.20;99.90;;;;;;4991154;28;20046;-82
2023/01/25 06:20:21;;;;;;;39.97;19.00;;;0.90;99.90;;;;;;5000216;28;20045;-81
2023/01/25 06:22:51;;;;;;;36.95;18.15;;;0.50;99.90;;;;;;4983399;28;20056;-81
2023/01/25 06:25:17;;;;;;;37.55;18.13;;;0.20;99.90;;;;;;4962039;28;20045;-82
2023/01/25 06:27:43;;;;;;;38.38;17.45;;;0.10;99.90;;;;;;4989005;28;20049;-82
2023/01/25 06:30:09;;;;;;;36.20;17.63;;;0.70;99.90;;;;;;4982197;28;20112;-82
2023/01/25 06:32:35;;;;;;;36.58;17.70;;;0.10;99.90;;;;;;4984042;28;20053;-82
2023/01/25 06:35:01;;;;;;;40.30;18.45;;;0.10;99.90;;;;;;4993404;28;20096;-82
2023/01/25 06:37:27;;;;;;;39.45;17.65;;;0.10;99.90;;;;;;4988912;28;20081;-81
2023/01/25 06:39:53;;;;;;;38.47;17.60;;;0.80;99.90;;;;;;4971103;28;20127;-81
2023/01/25 06:42:19;;;;;;;39.97;18.40;;;0.20;99.90;;;;;;4997519;28;20054;-82
2023/01/25 06:44:45;;;;;;;40.85;18.02;;;0.20;99.90;;;;;;4967050;28;20053;-83
2023/01/25 06:47:11;;;;;;;35.65;16.48;;;0.90;99.90;;;;;;4988702;28;20116;-82
2023/01/25 06:49:37;;;;;;;38.75;17.10;;;0.20;99.90;;;;;;4968911;28;20056;-83
2023/01/25 06:52:03;;;;;;;33.75;16.27;;;0.80;99.90;;;;;;4998323;28;20053;-82
2023/01/25 06:54:29;;;;;;;36.70;16.70;;;0.20;99.90;;;;;;4970311;28;20096;-82
2023/01/25 06:56:55;;;;;;;34.70;16.50;;;0.20;99.90;;;;;;4980780;28;20041;-82
2023/01/25 06:59:21;;;;;;;36.33;16.45;;;0.20;99.90;;;;;;4972888;28;20066;-81
2023/01/25 07:01:46;;;;;;;38.97;17.73;;;0.20;99.90;;;;;;4959467;28;20046;-82
2023/01/25 07:04:12;;;;;;;35.88;16.67;;;0.20;99.90;;;;;;4997433;28;20080;-83
2023/01/25 07:06:38;;;;;;;36.00;16.30;;;0.20;99.90;;;;;;4963034;28;20786;-85
2023/01/25 07:09:07;;;;;;;34.83;16.50;;;0.20;99.90;;;;;;5003210;28;20049;-83
2023/01/25 07:11:33;;;;;;;36.40;15.90;;;0.20;99.90;;;;;;5001527;28;20038;-84
2023/01/25 07:13:59;;;;;;;37.10;15.88;;;1.80;99.90;;;;;;4961423;28;20072;-83
2023/01/25 07:16:25;;;;;;;38.63;17.15;;;0.50;99.90;;;;;;5002378;28;20089;-83
2023/01/25 07:18:50;;;;;;;38.67;17.15;;;0.20;99.90;;;;;;5003637;28;20077;-83
2023/01/25 07:21:23;;;;;;;39.75;17.30;;;0.20;99.90;;;;;;4977132;28;20045;-84
2023/01/25 07:23:50;;;;;;;42.33;17.25;;;0.30;99.90;;;;;;4966089;28;20085;-84
2023/01/25 07:26:17;;;;;;;43.08;17.63;;;0.30;99.90;;;;;;4985640;28;20052;-84
2023/01/25 07:28:45;;;;;;;38.47;17.20;;;1.20;99.90;;;;;;5001775;28;20117;-84
2023/01/25 07:31:11;;;;;;;39.72;18.60;;;2.40;99.90;;;;;;4960431;28;1177071;-83
2023/01/25 07:33:37;;;;;;;35.75;17.30;;;1.20;99.90;;;;;;5002698;28;20479;-85
2023/01/25 07:36:06;;;;;;;38.20;16.88;;;1.70;99.90;;;;;;4977896;28;20124;-83
2023/01/25 07:38:32;;;;;;;39.28;16.63;;;0.30;99.90;;;;;;4963761;28;20054;-83
2023/01/25 07:40:58;;;;;;;40.97;17.60;;;0.20;99.90;;;;;;5002644;28;20045;-82
2023/01/25 07:43:24;;;;;;;40.50;17.67;;;0.30;99.90;;;;;;4974502;28;20080;-80
2023/01/25 07:45:51;;;;;;;46.20;20.80;;;0.30;99.90;;;;;;5002243;28;20054;-82
2023/01/25 07:48:18;;;;;;;46.42;20.17;;;0.60;99.90;;;;;;5008944;28;20779;-82
2023/01/25 07:51:10;;;;;;;45.45;19.27;;;0.30;99.90;;;;;;4969107;28;20376;-82
2023/01/25 07:53:42;;;;;;;46.40;20.10;;;1.30;99.90;;;;;;4983526;28;20050;-81
2023/01/25 07:56:10;;;;;;;44.15;19.15;;;0.30;99.90;;;;;;4979908;28;20487;-82
2023/01/25 07:58:36;;;;;;;48.42;19.23;;;0.30;99.90;;;;;;4985274;28;20137;-82
2023/01/25 08:01:14;;;;;;;47.95;19.42;;;2.20;99.90;;;;;;4979674;28;20133;-82
2023/01/25 08:03:40;;;;;;;48.65;19.05;;;0.30;99.90;;;;;;4964897;28;20049;-82
2023/01/25 08:06:06;;;;;;;50.13;18.48;;;0.70;99.90;;;;;;4993749;28;20053;-82
2023/01/25 08:08:34;;;;;;;49.25;18.83;;;0.30;99.90;;;;;;4976679;28;20058;-83
2023/01/25 08:11:07;;;;;;;54.20;19.90;;;0.90;99.90;;;;;;4965153;28;20045;-82
2023/01/25 08:13:32;;;;;;;51.55;19.50;;;0.40;99.90;;;;;;4970221;28;20054;-83
2023/01/25 08:15:58;;;;;;;50.55;19.42;;;0.40;99.90;;;;;;4969664;28;20064;-83
2023/01/25 08:18:24;;;;;;;52.70;19.08;;;1.20;99.90;;;;;;4993261;28;20491;-83
2023/01/25 08:20:50;;;;;;;55.20;20.83;;;1.80;99.90;;;;;;5011216;28;20046;-83
2023/01/25 08:23:16;;;;;;;55.47;20.73;;;1.30;99.90;;;;;;4986517;28;20048;-83
2023/01/25 08:25:42;;;;;;;60.42;21.02;;;0.40;99.90;;;;;;4985625;28;20049;-85
2023/01/25 08:28:08;;;;;;;54.80;19.20;;;0.40;99.90;;;;;;4970238;28;20100;-81
2023/01/25 08:30:33;;;;;;;56.85;19.40;;;0.40;99.90;;;;;;4992497;28;20139;-89
2023/01/25 08:32:59;;;;;;;60.67;21.25;;;0.40;99.90;;;;;;4985383;28;20174;-80
2023/01/25 08:35:25;;;;;;;61.13;20.70;;;0.50;99.90;;;;;;4990106;28;20069;-81
2023/01/25 08:37:50;;;;;;;58.42;20.70;;;0.50;99.90;;;;;;5008033;28;20112;-79
2023/01/25 08:40:16;;;;;;;64.40;20.58;;;0.50;99.90;;;;;;4994210;28;20038;-83
2023/01/25 08:42:42;;;;;;;67.05;21.55;;;0.50;99.90;;;;;;4984932;28;20434;-86
2023/01/25 08:45:09;;;;;;;63.72;20.85;;;0.50;99.90;;;;;;4965439;28;20088;-85
2023/01/25 08:47:35;;;;;;;63.00;21.35;;;0.50;99.90;;;;;;5000736;28;20050;-80
2023/01/25 08:50:01;;;;;;;74.75;23.08;;;2.20;99.90;;;;;;4967874;28;20072;-80
2023/01/25 08:52:26;;;;;;;73.80;21.80;;;1.50;99.90;;;;;;5000122;28;20511;-82
2023/01/25 08:54:52;;;;;;;69.75;21.98;;;0.50;99.90;;;;;;5000436;28;20709;-79
2023/01/25 08:57:18;;;;;;;64.05;22.60;;;0.50;99.90;;;;;;4984342;28;20054;-80
2023/01/25 08:59:44;;;;;;;65.78;22.80;;;0.50;99.90;;;;;;4993674;28;20045;-80
2023/01/25 09:02:11;;;;;;;68.82;22.92;;;0.60;99.90;;;;;;5001813;28;20050;-78
2023/01/25 09:04:37;;;;;;;73.82;24.25;;;0.50;99.90;;;;;;5003281;28;20058;-79
2023/01/25 09:07:03;;;;;;;71.72;22.85;;;1.10;99.90;;;;;;5002586;28;20054;-80
2023/01/25 09:09:29;;;;;;;83.07;25.50;;;0.50;99.90;;;;;;5002602;28;20079;-80
2023/01/25 09:11:55;;;;;;;78.63;24.58;;;0.50;99.90;;;;;;4986578;28;20046;-79
2023/01/25 09:14:21;;;;;;;77.78;25.42;;;1.90;99.90;;;;;;5002522;28;20046;-80
2023/01/25 09:16:47;;;;;;;83.13;27.45;;;0.50;99.90;;;;;;4995551;28;20126;-81
2023/01/25 09:19:13;;;;;;;81.57;26.00;;;0.60;99.90;;;;;;4979623;28;20060;-79
2023/01/25 09:21:39;;;;;;;81.65;27.27;;;0.60;99.90;;;;;;4963290;28;20099;-80
2023/01/25 09:24:05;;;;;;;90.57;28.13;;;1.10;99.90;;;;;;4978276;28;20574;-80
2023/01/25 09:26:32;;;;;;;84.50;27.80;;;0.60;99.90;;;;;;4993431;28;20053;-80
2023/01/25 09:28:58;;;;;;;94.88;27.25;;;1.40;99.90;;;;;;4977823;28;20054;-81
2023/01/25 09:31:24;;;;;;;95.78;30.08;;;0.60;99.90;;;;;;4978811;28;20394;-80
2023/01/25 09:33:51;;;;;;;91.25;29.17;;;0.70;99.90;;;;;;4978920;28;20054;-80
2023/01/25 09:36:17;;;;;;;97.95;28.77;;;0.70;99.90;;;;;;4985198;28;20054;-82
2023/01/25 09:38:44;;;;;;;95.25;28.83;;;0.70;99.90;;;;;;4961782;28;20058;-79
2023/01/25 09:41:44;;;;;;;106.75;28.45;;;0.70;99.90;;;;;;5019412;28;20062;-78
2023/01/25 09:44:19;;;;;;;95.97;29.08;;;0.70;99.90;;;;;;5002573;28;20046;-80
2023/01/25 09:46:48;;;;;;;98.93;29.42;;;0.70;99.90;;;;;;4985394;28;20053;-80
2023/01/25 09:49:45;;;;;;;108.10;29.73;;;0.70;99.90;;;;;;4983161;28;20046;-81
2023/01/25 09:52:49;;;;;;;93.05;28.73;;;0.80;99.90;;;;;;4977348;28;20275;-80
2023/01/25 09:55:18;;;;;;;89.78;29.25;;;0.80;99.90;;;;;;4983889;28;20041;-81
2023/01/25 09:57:47;;;;;;;102.72;31.77;;;0.80;99.90;;;;;;4986617;28;20054;-83
2023/01/25 10:00:16;;;;;;;100.13;29.70;;;1.90;99.90;;;;;;5001961;28;20042;-82
2023/01/25 10:02:59;;;;;;;98.78;31.60;;;0.80;99.90;;;;;;5020049;28;20054;-83
2023/01/25 10:05:30;;;;;;;96.65;29.58;;;0.90;99.90;;;;;;5003468;28;20058;-83
2023/01/25 10:08:27;;;;;;;90.85;29.75;;;1.00;99.90;;;;;;4987548;28;20069;-83
2023/01/25 10:11:07;;;;;;;93.25;31.23;;;0.90;99.90;;;;;;4994848;28;20056;-84
2023/01/25 10:13:32;;;;;;;89.15;29.35;;;1.00;99.90;;;;;;4988514;28;20058;-85
2023/01/25 10:16:23;;;;;;;85.85;29.10;;;1.00;99.90;;;;;;5029378;28;20053;-84
2023/01/25 10:19:13;;;;;;;92.93;31.00;;;1.00;99.90;;;;;;4968122;28;20052;-84
2023/01/25 10:21:47;;;;;;;95.78;30.13;;;1.10;99.90;;;;;;4999556;28;20077;-84
2023/01/25 10:24:38;;;;;;;89.78;29.95;;;1.10;99.90;;;;;;4986551;28;20123;-82
2023/01/25 10:27:16;;;;;;;90.90;30.52;;;1.10;99.90;;;;;;5021068;28;20046;-86
2023/01/25 10:29:42;;;;;;;86.60;29.88;;;1.90;99.90;;;;;;5021039;28;20136;-86
2023/01/25 10:32:19;;;;;;;96.00;31.77;;;1.30;99.90;;;;;;4996935;28;20141;-86
2023/01/25 10:34:49;;;;;;;91.50;30.98;;;1.30;99.90;;;;;;4997218;28;20310;-85
2023/01/25 10:37:29;;;;;;;91.68;30.50;;;1.40;99.90;;;;;;5022550;28;20046;-86
2023/01/25 10:39:58;;;;;;;85.90;29.75;;;1.40;99.90;;;;;;4987239;28;20134;-86
2023/01/25 10:42:26;;;;;;;82.82;30.60;;;1.50;99.90;;;;;;4987281;28;20050;-85
2023/01/25 10:44:54;;;;;;;88.20;29.90;;;1.70;99.90;;;;;;4987663;28;20103;-86
2023/01/25 10:47:31;;;;;;;82.25;29.05;;;1.60;99.90;;;;;;4984013;28;20045;-84
2023/01/25 10:49:58;;;;;;;77.97;28.38;;;1.60;99.90;;;;;;4969641;28;20054;-84
2023/01/25 10:52:26;;;;;;;84.10;30.92;;;1.70;99.90;;;;;;4996651;28;20073;-82
2023/01/25 10:55:14;;;;;;;75.72;27.17;;;3.30;99.90;;;;;;4966934;28;20061;-82
2023/01/25 10:57:56;;;;;;;78.28;27.92;;;1.70;99.90;;;;;;4966672;28;20630;-82
2023/01/25 11:00:39;;;;;;;79.57;29.73;;;1.80;99.90;;;;;;4971048;28;20049;-84
2023/01/25 11:03:16;;;;;;;69.60;27.02;;;2.80;99.90;;;;;;4981429;28;20053;-83
2023/01/25 11:05:51;;;;;;;71.25;28.02;;;1.80;99.90;;;;;;4964550;28;20053;-83
2023/01/25 11:08:31;;;;;;;76.25;28.90;;;1.90;99.90;;;;;;5003783;28;20601;-84
2023/01/25 11:10:58;;;;;;;71.05;26.50;;;2.10;99.90;;;;;;4981563;28;20168;-84
2023/01/25 11:13:39;;;;;;;74.38;27.00;;;2.00;99.90;;;;;;5003799;28;20135;-84
2023/01/25 11:16:19;;;;;;;72.90;27.27;;;2.30;99.90;;;;;;4973269;28;20626;-84
2023/01/25 11:18:51;;;;;;;75.47;28.58;;;2.00;99.90;;;;;;4976773;28;20503;-84
2023/01/25 11:21:24;;;;;;;73.63;26.45;;;2.20;99.90;;;;;;4985237;28;20081;-84
2023/01/25 11:24:08;;;;;;;70.00;27.65;;;2.10;99.90;;;;;;5005531;28;20420;-85
2023/01/25 11:26:38;;;;;;;74.60;26.70;;;2.20;99.90;;;;;;4998715;28;20050;-85
2023/01/25 11:29:24;;;;;;;77.13;27.05;;;2.20;99.90;;;;;;4981129;28;20053;-85
2023/01/25 11:31:59;;;;;;;67.93;26.75;;;2.50;99.90;;;;;;4985500;28;20523;-83
2023/01/25 11:34:28;;;;;;;71.63;28.05;;;1.60;99.90;;;;;;5003296;28;20135;-83
2023/01/25 11:37:08;;;;;;;70.60;26.58;;;2.70;99.90;;;;;;4964721;28;20053;-82
2023/01/25 11:39:43;;;;;;;65.05;25.98;;;2.50;99.90;;;;;;4996158;28;20052;-83
2023/01/25 11:43:04;;;;;;;66.83;26.53;;;2.40;99.90;;;;;;4963830;28;20431;-83
2023/01/25 11:46:00;;;;;;;65.97;25.48;;;2.60;99.90;;;;;;4958995;28;20065;-82
2023/01/25 11:48:47;;;;;;;65.43;24.95;;;2.40;99.90;;;;;;4980723;28;20618;-81
2023/01/25 11:51:22;;;;;;;64.25;25.98;;;2.50;99.90;;;;;;4987015;28;20049;-81
2023/01/25 11:54:06;;;;;;;63.28;26.63;;;2.50;99.90;;;;;;5000531;28;20049;-82
2023/01/25 11:57:01;;;;;;;62.85;26.65;;;2.50;99.90;;;;;;4982242;28;20137;-81
2023/01/25 12:00:02;;;;;;;68.50;27.05;;;2.50;99.90;;;;;;4981024;28;20050;-81
2023/01/25 12:03:15;;;;;;;64.00;27.13;;;2.60;99.90;;;;;;4972634;28;20545;-82
2023/01/25 12:05:52;;;;;;;60.40;24.92;;;2.60;99.90;;;;;;4961630;28;20077;-82
2023/01/25 12:09:01;;;;;;;57.72;25.02;;;3.50;99.90;;;;;;4962109;28;20050;-83
2023/01/25 12:12:10;;;;;;;58.70;24.98;;;2.60;99.90;;;;;;4984346;28;20137;-83
2023/01/25 12:14:46;;;;;;;60.83;25.60;;;2.60;99.90;;;;;;4996177;28;20222;-83
2023/01/25 12:17:21;;;;;;;61.42;25.77;;;2.70;99.90;;;;;;5012902;28;20140;-83
2023/01/25 12:20:21;;;;;;;62.75;25.10;;;2.70;99.90;;;;;;4995354;28;20061;-83
2023/01/25 12:23:10;;;;;;;63.95;24.85;;;2.70;99.90;;;;;;4979099;28;20658;-82
2023/01/25 12:25:47;;;;;;;60.08;24.30;;;2.70;99.90;;;;;;4994736;28;20050;-83
2023/01/25 12:28:24;;;;;;;64.30;24.90;;;2.70;99.90;;;;;;4957352;28;20065;-82
2023/01/25 12:30:59;;;;;;;60.70;25.30;;;3.30;99.90;;;;;;4957226;28;20527;-82
2023/01/25 12:33:28;;;;;;;54.55;23.80;;;2.80;99.90;;;;;;4977748;28;20193;-83
2023/01/25 12:36:02;;;;;;;56.10;24.60;;;2.80;99.90;;;;;;4972502;28;20038;-82
2023/01/25 12:38:59;;;;;;;57.03;25.15;;;2.00;99.90;;;;;;4972694;28;20306;-83
2023/01/25 12:41:49;;;;;;;56.45;23.88;;;2.80;99.90;;;;;;4994156;28;20082;-82
2023/01/25 12:44:24;;;;;;;53.08;24.83;;;2.90;99.90;;;;;;5011045;28;20073;-82
2023/01/25 12:46:54;;;;;;;55.65;24.08;;;3.80;99.90;;;;;;4978885;28;20399;-83
2023/01/25 12:49:27;;;;;;;58.38;24.13;;;2.80;99.90;;;;;;4978542;28;20074;-81
2023/01/25 12:51:55;;;;;;;54.35;24.50;;;2.90;99.90;;;;;;4974006;28;20054;-83
2023/01/25 12:54:38;;;;;;;52.28;23.73;;;3.30;99.90;;;;;;4995294;28;20559;-83
2023/01/25 12:57:32;;;;;;;53.13;23.70;;;3.20;99.90;;;;;;4959334;28;20499;-83
2023/01/25 13:00:22;;;;;;;50.75;22.70;;;3.00;99.90;;;;;;4974423;28;20085;-82